Beesel, Netherlands
Current Conditions -  °F | °C
As of 8:20 PM on Wednesday 22 Oct 2014 (Local Time) from EDLN Reporting Station
Clear Clear  
Wind Chill: 50°   Ceiling: Unl
Heat Index: 50°   Visibility: 6mi
Dew Point: 45°   Wind: 7mph
Humidity: 82%   Direction: 290°WNW
Pressure: 30.15"   Gusts: NA
Location:  51.27°N, 6.04°E
Report Text: EDLN 221820Z 29006KT 230V320 CAVOK 10/07 Q1021
Loading
Personal Weather Stations






























Interactive Weather Map
Tropical Storm Tracking
New forecast layout! Learn more

10-Day Weather Forecast

Advertisements
Track Severe Weather on mobile